Kulusuk

KL  EN  DA
ASIAQ
Weather Now GREENLAND SURVEY
Updated [WGT/WGST] Temperature [°C] Wind [m/s] Air pressure [hPa] Relative humidity [%] Precipitation [mm]
Present Wind chill Speed Max
19.10 00:00-2,1-5,02,1 ⇒3,11013800,0
18.10 23:00-0,5-2,31,5 ⇒2,11014780,0
18.10 22:00-0,70,01,0 ⇗1,61014780,0
18.10 21:00-2,20,00,3 ⇗1,51015740,0
18.10 20:00-1,5-3,61,6 ⇑2,01015730,0
18.10 19:00-1,2-5,53,6 ⇑4,71016700,0
18.10 18:00-0,4-4,84,1 ⇑5,01016690,0
18.10 17:000,2-4,04,0 ⇑5,11016650,0
18.10 16:00-0,1-3,73,1 ⇗4,21017680,0
18.10 15:000,3-4,34,6 ⇗6,01017600,0
18.10 14:000,3-3,94,0 ⇗5,11017670,0
18.10 13:000,4-3,73,8 ⇗5,11018640,0
18.10 12:00-0,3-3,62,7 ⇗3,21018710,0
18.10 11:00-0,2-2,61,9 ⇗2,21018630,0
18.10 10:00-0,9-2,91,6 ⇗2,41018540,0
18.10 09:00-1,8-3,81,5 ⇒2,11018570,0
18.10 08:00-1,8-5,62,9 ⇗3,61018620,0
18.10 07:00-2,30,00,0 ⇓0,01018640,0
18.10 06:00-2,90,01,2 ⇒1,71018680,0
18.10 05:00-1,40,01,1 ⇑1,81018670,0
18.10 04:00-0,9-3,52,0 ⇗2,91018650,0
18.10 03:00-1,20,01,2 ⇗2,61018660,0
18.10 02:00-1,20,00,0 ⇓0,01018610,0
18.10 01:00-0,10,00,0 ⇓0,01018600,0
18.10 00:00-1,90,00,0 ⇓0,01018670,0
Position: (65.583333,-37.15)

[Back]